Ana Sayfa
METAR-TAF:

METAR-TAF

Havaalanları :

Plymouth Municipal Airport

Plymouth, Massachusetts, Amerika Birleşik Devletleri

Enlem: 41-54-31N, Boylam: 070-43-41W, yükseklik: 45 m

Güncel hava durumu gözlemi

Rapor saat 06:33 UTC de 30 dakika önce yapıldı.
Rüzgar doğu/güneydoğudan 10 kt ve 19 kt'a kadar ani rüzgarlar
Sıcaklık 11°C
Nem 94%
Basınç 1015 hPa
Görüş mesafesi: 11.3 km
800 ft yükseklikte parçalı çok bulutlu
1300 ft yükseklikte çok bulutlu
hafif yağmur

METAR: KPYM 140633Z AUTO 11010G19KT 7SM -RA BKN008 OVC013 11/10 A2998 RMK AO2 P0009 T01110100

Saat: 02:03 (07:03 UTC)


TAF: eksik

4.000'den fazla havaalanı için hava durumu gözlemleri ve tahminleri (METAR ve TAF raporları).

Kullanılabilir istasyonlar harita üzerinde sarı ve kırmızı noktalarla gösterilir.

İstasyonun adını görmek için fareyi noktanın üzerinde gezdirin.

Sonrasında hava gözlem ve tahminlerini görmek için tıklayın.

Haritayı değiştirmek için: yaklaştırmak için siyah artı işaretli yeşil düğmeye ve uzaklaştırmak için de eksi işaretli düğmeye hızla tıklayın; bitişik haritalar için yeşil okları kullanın.


METAR-TAF: